Aérodrome :







RETROUVEZ-NOUS SUR...

 
LOGIN :

S'inscrire | Disclaimer

   EN    FR    IT 

 









Légende :    VFR   VFR Marginal   IFR   IFR Intensif   IFR Très Intensif
Visi : 
Plafond : 
>= 8 km
>= 3000ft
5 à 8 km
1000 à 3000 ft
1500m à 5 km
500 à 1000 ft
800 à 1500m
200 à 500 ft
< 800m
< 200 ft
Symboles :   Orages  Brouillard  Fortes neiges  Fortes précipitations  Vent > 20 kt






- Altitude de l'aérodrome : 241 ft
- Code IATA : CEF


KCEF - Westover ARB/Metropolitan

DERNIER METAR :
  • 060456Z AUTO 00000KT 10SM CLR 06/05 A2998 RMK AO2 SLP159 T00570045 401470057

METARs EXPIRÉS :
  • 060356Z AUTO 19004KT 10SM CLR 08/05 A2997 RMK AO2 SLP156 T00770050
  • 060256Z 20007KT 10SM FEW060 BKN200 09/06 A2997 RMK AO2A SLP156 T00900056 50006

TAF TAF KCEF
Valide du 06 à 02h jusqu'au 07 à 08h UTC


060200Z 0602/0708 21009KT 9999 BKN060 BKN200 QNH2998INS
BECMG 0602/0603 31009KT 9999 BKN060 BKN200 QNH2998INS
BECMG 0605/0606 31006KT 9999 FEW025 SCT250 QNH2998INS
BECMG 0613/0614 33010G15KT 9999 FEW025 QNH2995INS
BECMG 0622/0623 VRB06KT 9999 SCT120 BKN250 QNH2996INS TX18/0620Z TN04/0610Z LAST NO AMDS AFT 0603 NEXT 0610



MET'MAP, la Météo Aéronautique d'un coup d'oeil ! - Copyright ORBIFLY Décembre 2007 - Disclaimer

ORBIFLY MET'MAP TEAM :

Programmation & Développement : Alexandra Zaïnal
Sur une idée originale de : Baudouin d'Aumeries
Assistance à la programmation : Marc-Olivier Méhu
Soutien technique & logistique : Manuel Goepfert

Contact : metmap@orbifly.com




SOURCES & CREDITS :

   NOAA